sensor_id;sensor_type;location;lat;lon;timestamp;P1;durP1;ratioP1;P2;durP2;ratioP2
49241;SDS011;35079;52.704;13.814;2022-09-09T00:01:15;15.95;;;13.10;;
49241;SDS011;35079;52.704;13.814;2022-09-09T00:04:13;15.88;;;12.93;;
49241;SDS011;35079;52.704;13.814;2022-09-09T00:10:28;18.45;;;13.52;;
49241;SDS011;35079;52.704;13.814;2022-09-09T00:12:52;18.77;;;13.35;;
49241;SDS011;35079;52.704;13.814;2022-09-09T00:18:57;22.55;;;16.75;;
49241;SDS011;35079;52.704;13.814;2022-09-09T00:21:19;22.85;;;17.60;;
49241;SDS011;35079;52.704;13.814;2022-09-09T00:23:55;23.40;;;16.83;;
49241;SDS011;35079;52.704;13.814;2022-09-09T00:26:42;24.25;;;17.15;;
49241;SDS011;35079;52.704;13.814;2022-09-09T00:31:57;23.83;;;17.38;;
49241;SDS011;35079;52.704;13.814;2022-09-09T00:34:30;24.75;;;17.52;;
49241;SDS011;35079;52.704;13.814;2022-09-09T00:36:58;22.65;;;18.08;;
49241;SDS011;35079;52.704;13.814;2022-09-09T00:44:38;41.25;;;19.70;;
49241;SDS011;35079;52.704;13.814;2022-09-09T00:47:26;22.92;;;17.85;;
49241;SDS011;35079;52.704;13.814;2022-09-09T00:55:46;21.45;;;18.10;;
49241;SDS011;35079;52.704;13.814;2022-09-09T00:58:17;24.80;;;16.90;;
49241;SDS011;35079;52.704;13.814;2022-09-09T01:00:44;21.95;;;17.02;;
49241;SDS011;35079;52.704;13.814;2022-09-09T01:17:04;28.15;;;16.73;;
49241;SDS011;35079;52.704;13.814;2022-09-09T01:28:29;19.48;;;15.68;;
49241;SDS011;35079;52.704;13.814;2022-09-09T01:30:56;21.83;;;15.02;;
49241;SDS011;35079;52.704;13.814;2022-09-09T01:33:23;36.45;;;18.52;;
49241;SDS011;35079;52.704;13.814;2022-09-09T01:35:54;27.25;;;17.80;;
49241;SDS011;35079;52.704;13.814;2022-09-09T01:38:41;21.33;;;16.88;;
49241;SDS011;35079;52.704;13.814;2022-09-09T01:41:07;28.40;;;16.15;;
49241;SDS011;35079;52.704;13.814;2022-09-09T01:43:32;20.73;;;15.82;;
49241;SDS011;35079;52.704;13.814;2022-09-09T01:45:59;18.92;;;14.93;;
49241;SDS011;35079;52.704;13.814;2022-09-09T01:48:27;20.83;;;16.35;;
49241;SDS011;35079;52.704;13.814;2022-09-09T01:50:53;18.70;;;15.45;;
49241;SDS011;35079;52.704;13.814;2022-09-09T01:53:19;21.98;;;17.27;;
49241;SDS011;35079;52.704;13.814;2022-09-09T01:55:54;24.88;;;16.83;;
49241;SDS011;35079;52.704;13.814;2022-09-09T02:01:13;21.15;;;16.15;;
49241;SDS011;35079;52.704;13.814;2022-09-09T02:04:02;20.73;;;15.40;;
49241;SDS011;35079;52.704;13.814;2022-09-09T02:06:35;21.38;;;15.85;;
49241;SDS011;35079;52.704;13.814;2022-09-09T02:09:07;23.95;;;14.95;;
49241;SDS011;35079;52.704;13.814;2022-09-09T02:11:37;20.27;;;15.18;;
49241;SDS011;35079;52.704;13.814;2022-09-09T02:14:08;17.50;;;13.52;;
49241;SDS011;35079;52.704;13.814;2022-09-09T02:19:16;17.58;;;13.90;;
49241;SDS011;35079;52.704;13.814;2022-09-09T02:21:50;18.08;;;13.80;;
49241;SDS011;35079;52.704;13.814;2022-09-09T02:24:20;17.70;;;14.05;;
49241;SDS011;35079;52.704;13.814;2022-09-09T02:26:48;18.58;;;14.40;;
49241;SDS011;35079;52.704;13.814;2022-09-09T02:29:27;19.33;;;13.75;;
49241;SDS011;35079;52.704;13.814;2022-09-09T02:32:07;15.98;;;12.77;;
49241;SDS011;35079;52.704;13.814;2022-09-09T02:34:39;20.60;;;13.20;;
49241;SDS011;35079;52.704;13.814;2022-09-09T02:37:08;17.23;;;13.02;;
49241;SDS011;35079;52.704;13.814;2022-09-09T02:39:36;17.50;;;13.73;;
49241;SDS011;35079;52.704;13.814;2022-09-09T02:42:03;18.13;;;12.63;;
49241;SDS011;35079;52.704;13.814;2022-09-09T02:44:29;17.02;;;12.95;;
49241;SDS011;35079;52.704;13.814;2022-09-09T02:52:06;14.95;;;11.90;;
49241;SDS011;35079;52.704;13.814;2022-09-09T02:54:37;16.27;;;12.60;;
49241;SDS011;35079;52.704;13.814;2022-09-09T02:59:47;17.73;;;13.07;;
49241;SDS011;35079;52.704;13.814;2022-09-09T03:02:14;18.27;;;13.52;;
49241;SDS011;35079;52.704;13.814;2022-09-09T03:04:40;16.35;;;12.82;;
49241;SDS011;35079;52.704;13.814;2022-09-09T03:07:08;14.13;;;12.50;;
49241;SDS011;35079;52.704;13.814;2022-09-09T03:09:35;16.77;;;12.32;;
49241;SDS011;35079;52.704;13.814;2022-09-09T03:12:00;14.95;;;11.75;;
49241;SDS011;35079;52.704;13.814;2022-09-09T03:14:26;16.40;;;11.63;;
49241;SDS011;35079;52.704;13.814;2022-09-09T03:16:52;14.95;;;11.45;;
49241;SDS011;35079;52.704;13.814;2022-09-09T03:19:19;14.18;;;10.85;;
49241;SDS011;35079;52.704;13.814;2022-09-09T03:21:46;15.27;;;11.35;;
49241;SDS011;35079;52.704;13.814;2022-09-09T03:24:13;14.27;;;11.80;;
49241;SDS011;35079;52.704;13.814;2022-09-09T03:26:39;13.98;;;11.13;;
49241;SDS011;35079;52.704;13.814;2022-09-09T03:29:05;12.43;;;9.95;;
49241;SDS011;35079;52.704;13.814;2022-09-09T03:31:33;13.15;;;10.75;;
49241;SDS011;35079;52.704;13.814;2022-09-09T03:34:00;11.82;;;10.23;;
49241;SDS011;35079;52.704;13.814;2022-09-09T03:36:26;13.88;;;10.82;;
49241;SDS011;35079;52.704;13.814;2022-09-09T03:38:53;14.48;;;11.43;;
49241;SDS011;35079;52.704;13.814;2022-09-09T03:41:20;13.80;;;10.80;;
49241;SDS011;35079;52.704;13.814;2022-09-09T03:43:52;12.02;;;9.23;;
49241;SDS011;35079;52.704;13.814;2022-09-09T03:46:22;12.18;;;8.63;;
49241;SDS011;35079;52.704;13.814;2022-09-09T03:48:49;13.75;;;9.18;;
49241;SDS011;35079;52.704;13.814;2022-09-09T03:51:15;12.55;;;9.35;;
49241;SDS011;35079;52.704;13.814;2022-09-09T03:53:41;12.27;;;9.93;;
49241;SDS011;35079;52.704;13.814;2022-09-09T03:56:08;11.75;;;9.60;;
49241;SDS011;35079;52.704;13.814;2022-09-09T03:58:35;11.30;;;9.05;;
49241;SDS011;35079;52.704;13.814;2022-09-09T04:01:03;14.40;;;9.23;;
49241;SDS011;35079;52.704;13.814;2022-09-09T04:03:35;12.20;;;8.97;;
49241;SDS011;35079;52.704;13.814;2022-09-09T04:06:05;13.55;;;9.57;;
49241;SDS011;35079;52.704;13.814;2022-09-09T04:08:32;13.90;;;9.07;;
49241;SDS011;35079;52.704;13.814;2022-09-09T04:10:59;9.85;;;8.35;;
49241;SDS011;35079;52.704;13.814;2022-09-09T04:13:26;9.35;;;8.05;;
49241;SDS011;35079;52.704;13.814;2022-09-09T04:15:57;9.90;;;8.35;;
49241;SDS011;35079;52.704;13.814;2022-09-09T04:18:24;11.13;;;8.70;;
49241;SDS011;35079;52.704;13.814;2022-09-09T04:20:51;11.23;;;8.40;;
49241;SDS011;35079;52.704;13.814;2022-09-09T04:23:18;9.05;;;8.15;;
49241;SDS011;35079;52.704;13.814;2022-09-09T04:25:49;9.82;;;8.77;;
49241;SDS011;35079;52.704;13.814;2022-09-09T04:28:17;11.60;;;8.20;;
49241;SDS011;35079;52.704;13.814;2022-09-09T04:30:44;9.30;;;8.32;;
49241;SDS011;35079;52.704;13.814;2022-09-09T04:33:11;10.77;;;8.80;;
49241;SDS011;35079;52.704;13.814;2022-09-09T04:35:37;11.50;;;8.57;;
49241;SDS011;35079;52.704;13.814;2022-09-09T04:38:03;12.02;;;8.57;;
49241;SDS011;35079;52.704;13.814;2022-09-09T04:40:30;11.75;;;9.02;;
49241;SDS011;35079;52.704;13.814;2022-09-09T04:43:00;10.07;;;8.10;;
49241;SDS011;35079;52.704;13.814;2022-09-09T04:45:28;10.63;;;8.45;;
49241;SDS011;35079;52.704;13.814;2022-09-09T04:47:53;10.05;;;8.73;;
49241;SDS011;35079;52.704;13.814;2022-09-09T04:50:19;9.57;;;8.13;;
49241;SDS011;35079;52.704;13.814;2022-09-09T04:52:45;8.90;;;7.90;;
49241;SDS011;35079;52.704;13.814;2022-09-09T04:55:10;9.55;;;7.90;;
49241;SDS011;35079;52.704;13.814;2022-09-09T04:57:37;10.30;;;7.47;;
49241;SDS011;35079;52.704;13.814;2022-09-09T05:00:03;8.60;;;7.47;;
49241;SDS011;35079;52.704;13.814;2022-09-09T05:02:29;10.30;;;7.97;;
49241;SDS011;35079;52.704;13.814;2022-09-09T05:04:57;9.65;;;7.88;;
49241;SDS011;35079;52.704;13.814;2022-09-09T05:07:29;9.63;;;7.68;;
49241;SDS011;35079;52.704;13.814;2022-09-09T05:09:56;9.68;;;7.35;;
49241;SDS011;35079;52.704;13.814;2022-09-09T05:12:22;7.88;;;7.10;;
49241;SDS011;35079;52.704;13.814;2022-09-09T05:14:49;10.00;;;7.05;;
49241;SDS011;35079;52.704;13.814;2022-09-09T05:17:15;9.48;;;7.32;;
49241;SDS011;35079;52.704;13.814;2022-09-09T05:19:41;9.98;;;7.35;;
49241;SDS011;35079;52.704;13.814;2022-09-09T05:22:07;7.90;;;6.68;;
49241;SDS011;35079;52.704;13.814;2022-09-09T05:24:33;9.27;;;7.03;;
49241;SDS011;35079;52.704;13.814;2022-09-09T05:26:58;12.52;;;7.65;;
49241;SDS011;35079;52.704;13.814;2022-09-09T05:29:26;9.18;;;7.25;;
49241;SDS011;35079;52.704;13.814;2022-09-09T05:31:52;11.20;;;7.50;;
49241;SDS011;35079;52.704;13.814;2022-09-09T05:34:17;7.35;;;6.43;;
49241;SDS011;35079;52.704;13.814;2022-09-09T05:36:44;9.30;;;6.72;;
49241;SDS011;35079;52.704;13.814;2022-09-09T05:39:10;7.22;;;6.20;;
49241;SDS011;35079;52.704;13.814;2022-09-09T05:41:36;7.80;;;6.93;;
49241;SDS011;35079;52.704;13.814;2022-09-09T05:44:02;8.23;;;5.97;;
49241;SDS011;35079;52.704;13.814;2022-09-09T05:46:28;6.63;;;5.82;;
49241;SDS011;35079;52.704;13.814;2022-09-09T05:48:55;7.00;;;6.30;;
49241;SDS011;35079;52.704;13.814;2022-09-09T05:51:21;7.38;;;5.80;;
49241;SDS011;35079;52.704;13.814;2022-09-09T05:53:49;8.45;;;5.88;;
49241;SDS011;35079;52.704;13.814;2022-09-09T05:58:43;5.65;;;4.95;;
49241;SDS011;35079;52.704;13.814;2022-09-09T06:01:10;8.73;;;6.25;;
49241;SDS011;35079;52.704;13.814;2022-09-09T06:03:39;8.32;;;5.50;;
49241;SDS011;35079;52.704;13.814;2022-09-09T06:06:06;6.07;;;5.45;;
49241;SDS011;35079;52.704;13.814;2022-09-09T06:08:34;7.63;;;5.80;;
49241;SDS011;35079;52.704;13.814;2022-09-09T06:11:04;7.30;;;5.18;;
49241;SDS011;35079;52.704;13.814;2022-09-09T06:13:32;6.43;;;4.88;;
49241;SDS011;35079;52.704;13.814;2022-09-09T06:15:58;6.15;;;5.28;;
49241;SDS011;35079;52.704;13.814;2022-09-09T06:18:24;9.23;;;5.55;;
49241;SDS011;35079;52.704;13.814;2022-09-09T06:20:54;6.22;;;4.68;;
49241;SDS011;35079;52.704;13.814;2022-09-09T06:23:25;5.50;;;4.57;;
49241;SDS011;35079;52.704;13.814;2022-09-09T06:25:52;5.75;;;4.65;;
49241;SDS011;35079;52.704;13.814;2022-09-09T06:30:57;8.02;;;4.70;;
49241;SDS011;35079;52.704;13.814;2022-09-09T06:33:23;6.95;;;5.15;;
49241;SDS011;35079;52.704;13.814;2022-09-09T06:35:53;7.90;;;5.05;;
49241;SDS011;35079;52.704;13.814;2022-09-09T06:38:19;5.20;;;4.45;;
49241;SDS011;35079;52.704;13.814;2022-09-09T06:40:51;8.27;;;4.38;;
49241;SDS011;35079;52.704;13.814;2022-09-09T06:43:21;6.90;;;4.65;;
49241;SDS011;35079;52.704;13.814;2022-09-09T06:45:55;7.43;;;4.32;;
49241;SDS011;35079;52.704;13.814;2022-09-09T06:48:22;6.53;;;4.45;;
49241;SDS011;35079;52.704;13.814;2022-09-09T06:50:48;9.32;;;4.22;;
49241;SDS011;35079;52.704;13.814;2022-09-09T06:53:17;5.10;;;4.60;;
49241;SDS011;35079;52.704;13.814;2022-09-09T06:55:46;5.70;;;4.60;;
49241;SDS011;35079;52.704;13.814;2022-09-09T06:58:13;5.18;;;4.25;;
49241;SDS011;35079;52.704;13.814;2022-09-09T07:00:38;6.97;;;4.05;;
49241;SDS011;35079;52.704;13.814;2022-09-09T07:03:04;6.22;;;3.90;;
49241;SDS011;35079;52.704;13.814;2022-09-09T07:05:31;7.57;;;3.47;;
49241;SDS011;35079;52.704;13.814;2022-09-09T07:07:56;4.60;;;4.00;;
49241;SDS011;35079;52.704;13.814;2022-09-09T07:10:23;5.75;;;4.05;;
49241;SDS011;35079;52.704;13.814;2022-09-09T07:12:52;6.22;;;3.90;;
49241;SDS011;35079;52.704;13.814;2022-09-09T07:15:18;8.50;;;3.95;;
49241;SDS011;35079;52.704;13.814;2022-09-09T07:17:44;7.03;;;4.10;;
49241;SDS011;35079;52.704;13.814;2022-09-09T07:20:10;6.45;;;3.60;;
49241;SDS011;35079;52.704;13.814;2022-09-09T07:22:36;8.15;;;3.80;;
49241;SDS011;35079;52.704;13.814;2022-09-09T07:25:02;5.00;;;3.88;;
49241;SDS011;35079;52.704;13.814;2022-09-09T07:27:28;5.78;;;3.80;;
49241;SDS011;35079;52.704;13.814;2022-09-09T07:29:53;5.45;;;3.60;;
49241;SDS011;35079;52.704;13.814;2022-09-09T07:32:19;5.38;;;3.88;;
49241;SDS011;35079;52.704;13.814;2022-09-09T07:34:45;7.82;;;3.70;;
49241;SDS011;35079;52.704;13.814;2022-09-09T07:37:12;7.25;;;3.70;;
49241;SDS011;35079;52.704;13.814;2022-09-09T07:39:38;5.13;;;3.22;;
49241;SDS011;35079;52.704;13.814;2022-09-09T07:42:04;3.58;;;3.03;;
49241;SDS011;35079;52.704;13.814;2022-09-09T07:44:30;7.22;;;3.42;;
49241;SDS011;35079;52.704;13.814;2022-09-09T07:46:59;3.80;;;3.30;;
49241;SDS011;35079;52.704;13.814;2022-09-09T07:49:25;4.78;;;3.10;;
49241;SDS011;35079;52.704;13.814;2022-09-09T07:51:51;6.68;;;3.38;;
49241;SDS011;35079;52.704;13.814;2022-09-09T07:54:17;6.80;;;3.63;;
49241;SDS011;35079;52.704;13.814;2022-09-09T07:56:45;7.53;;;3.70;;
49241;SDS011;35079;52.704;13.814;2022-09-09T07:59:12;6.25;;;3.75;;
49241;SDS011;35079;52.704;13.814;2022-09-09T08:01:39;5.15;;;3.05;;
49241;SDS011;35079;52.704;13.814;2022-09-09T08:04:08;4.13;;;3.17;;
49241;SDS011;35079;52.704;13.814;2022-09-09T08:06:44;5.07;;;3.40;;
49241;SDS011;35079;52.704;13.814;2022-09-09T08:09:14;6.55;;;2.92;;
49241;SDS011;35079;52.704;13.814;2022-09-09T08:11:40;5.93;;;3.25;;
49241;SDS011;35079;52.704;13.814;2022-09-09T08:14:07;5.90;;;3.15;;
49241;SDS011;35079;52.704;13.814;2022-09-09T08:16:35;3.75;;;2.88;;
49241;SDS011;35079;52.704;13.814;2022-09-09T08:19:03;4.90;;;2.72;;
49241;SDS011;35079;52.704;13.814;2022-09-09T08:21:31;4.88;;;2.85;;
49241;SDS011;35079;52.704;13.814;2022-09-09T08:23:59;4.13;;;2.63;;
49241;SDS011;35079;52.704;13.814;2022-09-09T08:26:39;4.03;;;2.20;;
49241;SDS011;35079;52.704;13.814;2022-09-09T08:29:09;3.75;;;2.42;;
49241;SDS011;35079;52.704;13.814;2022-09-09T08:31:38;5.82;;;2.35;;
49241;SDS011;35079;52.704;13.814;2022-09-09T08:34:05;6.70;;;2.22;;
49241;SDS011;35079;52.704;13.814;2022-09-09T08:36:35;3.88;;;2.50;;
49241;SDS011;35079;52.704;13.814;2022-09-09T08:39:04;3.80;;;1.90;;
49241;SDS011;35079;52.704;13.814;2022-09-09T08:44:05;3.35;;;2.03;;
49241;SDS011;35079;52.704;13.814;2022-09-09T08:57:46;6.05;;;1.80;;
49241;SDS011;35079;52.704;13.814;2022-09-09T09:00:18;3.58;;;1.60;;
49241;SDS011;35079;52.704;13.814;2022-09-09T09:08:11;4.32;;;1.65;;
49241;SDS011;35079;52.704;13.814;2022-09-09T09:10:49;3.03;;;1.70;;
49241;SDS011;35079;52.704;13.814;2022-09-09T09:13:20;4.47;;;1.85;;
49241;SDS011;35079;52.704;13.814;2022-09-09T09:16:09;4.75;;;1.92;;
49241;SDS011;35079;52.704;13.814;2022-09-09T09:18:46;4.18;;;2.05;;
49241;SDS011;35079;52.704;13.814;2022-09-09T09:21:14;3.38;;;1.67;;
49241;SDS011;35079;52.704;13.814;2022-09-09T09:23:49;3.43;;;1.87;;
49241;SDS011;35079;52.704;13.814;2022-09-09T09:26:21;6.60;;;1.98;;
49241;SDS011;35079;52.704;13.814;2022-09-09T09:28:51;3.95;;;1.60;;
49241;SDS011;35079;52.704;13.814;2022-09-09T09:31:21;6.35;;;1.85;;
49241;SDS011;35079;52.704;13.814;2022-09-09T09:33:52;4.47;;;1.50;;
49241;SDS011;35079;52.704;13.814;2022-09-09T09:36:24;5.65;;;2.10;;
49241;SDS011;35079;52.704;13.814;2022-09-09T09:39:00;3.83;;;1.90;;
49241;SDS011;35079;52.704;13.814;2022-09-09T09:41:32;4.15;;;2.25;;
49241;SDS011;35079;52.704;13.814;2022-09-09T09:44:01;5.05;;;1.80;;
49241;SDS011;35079;52.704;13.814;2022-09-09T09:46:27;3.38;;;1.60;;
49241;SDS011;35079;52.704;13.814;2022-09-09T09:49:11;4.47;;;1.73;;
49241;SDS011;35079;52.704;13.814;2022-09-09T09:51:38;6.53;;;1.80;;
49241;SDS011;35079;52.704;13.814;2022-09-09T09:56:38;2.37;;;1.20;;
49241;SDS011;35079;52.704;13.814;2022-09-09T09:59:11;3.20;;;1.60;;
49241;SDS011;35079;52.704;13.814;2022-09-09T10:02:06;3.35;;;1.35;;
49241;SDS011;35079;52.704;13.814;2022-09-09T10:04:37;3.20;;;1.27;;
49241;SDS011;35079;52.704;13.814;2022-09-09T10:07:10;6.22;;;1.92;;
49241;SDS011;35079;52.704;13.814;2022-09-09T10:09:47;4.72;;;1.83;;
49241;SDS011;35079;52.704;13.814;2022-09-09T10:17:29;5.07;;;1.48;;
49241;SDS011;35079;52.704;13.814;2022-09-09T10:22:35;4.03;;;1.30;;
49241;SDS011;35079;52.704;13.814;2022-09-09T10:25:17;4.93;;;1.23;;
49241;SDS011;35079;52.704;13.814;2022-09-09T10:39:04;4.15;;;1.60;;
49241;SDS011;35079;52.704;13.814;2022-09-09T10:41:45;2.50;;;1.25;;
49241;SDS011;35079;52.704;13.814;2022-09-09T10:47:39;2.70;;;0.88;;
49241;SDS011;35079;52.704;13.814;2022-09-09T10:50:18;3.28;;;1.23;;
49241;SDS011;35079;52.704;13.814;2022-09-09T10:53:13;3.63;;;1.10;;
49241;SDS011;35079;52.704;13.814;2022-09-09T10:55:50;2.25;;;0.93;;
49241;SDS011;35079;52.704;13.814;2022-09-09T10:58:23;2.95;;;0.90;;
49241;SDS011;35079;52.704;13.814;2022-09-09T11:00:59;1.88;;;0.88;;
49241;SDS011;35079;52.704;13.814;2022-09-09T11:03:29;3.60;;;0.93;;
49241;SDS011;35079;52.704;13.814;2022-09-09T11:06:00;1.90;;;0.90;;
49241;SDS011;35079;52.704;13.814;2022-09-09T11:08:30;3.30;;;1.00;;
49241;SDS011;35079;52.704;13.814;2022-09-09T11:18:50;1.75;;;0.80;;
49241;SDS011;35079;52.704;13.814;2022-09-09T11:24:18;1.60;;;1.10;;
49241;SDS011;35079;52.704;13.814;2022-09-09T11:26:54;4.40;;;1.15;;
49241;SDS011;35079;52.704;13.814;2022-09-09T11:34:53;2.58;;;0.82;;
49241;SDS011;35079;52.704;13.814;2022-09-09T11:43:52;1.88;;;0.90;;
49241;SDS011;35079;52.704;13.814;2022-09-09T11:45:55;3.65;;;0.98;;
49241;SDS011;35079;52.704;13.814;2022-09-09T11:48:40;3.28;;;0.90;;
49241;SDS011;35079;52.704;13.814;2022-09-09T11:51:25;1.63;;;1.05;;
49241;SDS011;35079;52.704;13.814;2022-09-09T11:56:34;2.78;;;0.93;;
49241;SDS011;35079;52.704;13.814;2022-09-09T12:02:24;3.53;;;0.98;;
49241;SDS011;35079;52.704;13.814;2022-09-09T12:05:02;2.72;;;0.88;;
49241;SDS011;35079;52.704;13.814;2022-09-09T12:10:22;1.38;;;0.70;;
49241;SDS011;35079;52.704;13.814;2022-09-09T12:12:54;3.67;;;1.10;;
49241;SDS011;35079;52.704;13.814;2022-09-09T12:15:32;1.13;;;0.60;;
49241;SDS011;35079;52.704;13.814;2022-09-09T12:17:58;2.45;;;0.93;;
49241;SDS011;35079;52.704;13.814;2022-09-09T12:20:38;1.95;;;0.82;;
49241;SDS011;35079;52.704;13.814;2022-09-09T12:25:56;2.13;;;0.70;;
49241;SDS011;35079;52.704;13.814;2022-09-09T12:36:55;1.88;;;0.80;;
49241;SDS011;35079;52.704;13.814;2022-09-09T12:42:15;4.40;;;1.00;;
49241;SDS011;35079;52.704;13.814;2022-09-09T12:44:50;5.05;;;0.98;;
49241;SDS011;35079;52.704;13.814;2022-09-09T12:47:16;2.13;;;1.00;;
49241;SDS011;35079;52.704;13.814;2022-09-09T12:49:45;3.55;;;0.95;;
49241;SDS011;35079;52.704;13.814;2022-09-09T12:52:26;2.22;;;0.70;;
49241;SDS011;35079;52.704;13.814;2022-09-09T12:54:55;2.22;;;0.80;;
49241;SDS011;35079;52.704;13.814;2022-09-09T12:57:22;3.97;;;1.00;;
49241;SDS011;35079;52.704;13.814;2022-09-09T12:59:50;4.60;;;0.88;;
49241;SDS011;35079;52.704;13.814;2022-09-09T13:02:19;1.58;;;0.60;;
49241;SDS011;35079;52.704;13.814;2022-09-09T13:04:49;3.35;;;0.88;;
49241;SDS011;35079;52.704;13.814;2022-09-09T13:07:16;2.33;;;0.80;;
49241;SDS011;35079;52.704;13.814;2022-09-09T13:09:44;5.82;;;0.95;;
49241;SDS011;35079;52.704;13.814;2022-09-09T13:12:13;2.28;;;0.82;;
49241;SDS011;35079;52.704;13.814;2022-09-09T13:14:51;3.10;;;1.02;;
49241;SDS011;35079;52.704;13.814;2022-09-09T13:17:24;1.98;;;0.73;;
49241;SDS011;35079;52.704;13.814;2022-09-09T13:19:52;2.38;;;0.88;;
49241;SDS011;35079;52.704;13.814;2022-09-09T13:22:28;3.22;;;1.10;;
49241;SDS011;35079;52.704;13.814;2022-09-09T13:25:17;4.22;;;1.17;;
49241;SDS011;35079;52.704;13.814;2022-09-09T13:28:04;1.98;;;0.70;;
49241;SDS011;35079;52.704;13.814;2022-09-09T13:30:54;3.15;;;1.10;;
49241;SDS011;35079;52.704;13.814;2022-09-09T13:36:08;3.20;;;0.80;;
49241;SDS011;35079;52.704;13.814;2022-09-09T13:38:37;4.25;;;1.00;;
49241;SDS011;35079;52.704;13.814;2022-09-09T13:41:06;3.78;;;0.77;;
49241;SDS011;35079;52.704;13.814;2022-09-09T13:43:38;6.60;;;1.15;;
49241;SDS011;35079;52.704;13.814;2022-09-09T13:51:36;2.65;;;0.82;;
49241;SDS011;35079;52.704;13.814;2022-09-09T13:54:06;2.78;;;0.75;;
49241;SDS011;35079;52.704;13.814;2022-09-09T13:56:34;4.82;;;1.10;;
49241;SDS011;35079;52.704;13.814;2022-09-09T13:59:00;2.95;;;0.93;;
49241;SDS011;35079;52.704;13.814;2022-09-09T14:01:27;2.83;;;0.80;;
49241;SDS011;35079;52.704;13.814;2022-09-09T14:03:53;3.38;;;0.98;;
49241;SDS011;35079;52.704;13.814;2022-09-09T14:06:19;2.10;;;0.80;;
49241;SDS011;35079;52.704;13.814;2022-09-09T14:08:47;2.75;;;0.82;;
49241;SDS011;35079;52.704;13.814;2022-09-09T14:11:14;6.00;;;0.80;;
49241;SDS011;35079;52.704;13.814;2022-09-09T14:13:39;2.92;;;0.95;;
49241;SDS011;35079;52.704;13.814;2022-09-09T14:16:05;4.75;;;0.80;;
49241;SDS011;35079;52.704;13.814;2022-09-09T14:18:31;1.88;;;0.73;;
49241;SDS011;35079;52.704;13.814;2022-09-09T14:20:57;2.70;;;0.85;;
49241;SDS011;35079;52.704;13.814;2022-09-09T14:23:23;4.50;;;0.93;;
49241;SDS011;35079;52.704;13.814;2022-09-09T14:25:49;4.20;;;1.10;;
49241;SDS011;35079;52.704;13.814;2022-09-09T14:28:16;1.80;;;0.85;;
49241;SDS011;35079;52.704;13.814;2022-09-09T14:30:42;2.50;;;1.00;;
49241;SDS011;35079;52.704;13.814;2022-09-09T14:33:13;2.58;;;0.88;;
49241;SDS011;35079;52.704;13.814;2022-09-09T14:35:40;2.45;;;0.80;;
49241;SDS011;35079;52.704;13.814;2022-09-09T14:38:07;4.97;;;1.00;;
49241;SDS011;35079;52.704;13.814;2022-09-09T14:40:34;2.70;;;0.90;;
49241;SDS011;35079;52.704;13.814;2022-09-09T14:43:01;4.75;;;1.05;;
49241;SDS011;35079;52.704;13.814;2022-09-09T14:45:27;2.85;;;0.90;;
49241;SDS011;35079;52.704;13.814;2022-09-09T14:47:53;3.13;;;0.90;;
49241;SDS011;35079;52.704;13.814;2022-09-09T14:50:19;3.15;;;1.08;;
49241;SDS011;35079;52.704;13.814;2022-09-09T14:52:45;2.53;;;0.90;;
49241;SDS011;35079;52.704;13.814;2022-09-09T14:55:11;5.43;;;0.95;;
49241;SDS011;35079;52.704;13.814;2022-09-09T14:57:37;3.30;;;0.90;;
49241;SDS011;35079;52.704;13.814;2022-09-09T15:00:04;8.35;;;0.73;;
49241;SDS011;35079;52.704;13.814;2022-09-09T15:02:31;2.15;;;0.80;;
49241;SDS011;35079;52.704;13.814;2022-09-09T15:04:57;4.97;;;0.82;;
49241;SDS011;35079;52.704;13.814;2022-09-09T15:07:26;3.08;;;1.10;;
49241;SDS011;35079;52.704;13.814;2022-09-09T15:09:53;2.30;;;0.98;;
49241;SDS011;35079;52.704;13.814;2022-09-09T15:12:19;2.58;;;0.85;;
49241;SDS011;35079;52.704;13.814;2022-09-09T15:14:45;2.10;;;0.85;;
49241;SDS011;35079;52.704;13.814;2022-09-09T15:17:11;3.17;;;1.10;;
49241;SDS011;35079;52.704;13.814;2022-09-09T15:19:37;2.28;;;0.88;;
49241;SDS011;35079;52.704;13.814;2022-09-09T15:22:04;1.65;;;0.90;;
49241;SDS011;35079;52.704;13.814;2022-09-09T15:24:32;5.38;;;1.15;;
49241;SDS011;35079;52.704;13.814;2022-09-09T15:26:58;3.95;;;1.20;;
49241;SDS011;35079;52.704;13.814;2022-09-09T15:29:25;2.20;;;1.00;;
49241;SDS011;35079;52.704;13.814;2022-09-09T15:31:50;4.15;;;1.02;;
49241;SDS011;35079;52.704;13.814;2022-09-09T15:34:18;2.03;;;0.90;;
49241;SDS011;35079;52.704;13.814;2022-09-09T15:36:43;3.17;;;1.15;;
49241;SDS011;35079;52.704;13.814;2022-09-09T15:39:14;3.67;;;1.02;;
49241;SDS011;35079;52.704;13.814;2022-09-09T15:41:41;2.35;;;0.85;;
49241;SDS011;35079;52.704;13.814;2022-09-09T15:44:08;2.65;;;1.10;;
49241;SDS011;35079;52.704;13.814;2022-09-09T15:46:38;2.85;;;1.10;;
49241;SDS011;35079;52.704;13.814;2022-09-09T15:49:10;3.35;;;1.10;;
49241;SDS011;35079;52.704;13.814;2022-09-09T15:51:38;5.80;;;1.00;;
49241;SDS011;35079;52.704;13.814;2022-09-09T15:54:09;3.15;;;1.10;;
49241;SDS011;35079;52.704;13.814;2022-09-09T15:56:37;3.00;;;1.00;;
49241;SDS011;35079;52.704;13.814;2022-09-09T15:59:03;3.05;;;1.10;;
49241;SDS011;35079;52.704;13.814;2022-09-09T16:01:29;4.70;;;1.30;;
49241;SDS011;35079;52.704;13.814;2022-09-09T16:03:56;4.35;;;1.13;;
49241;SDS011;35079;52.704;13.814;2022-09-09T16:06:23;3.20;;;0.90;;
49241;SDS011;35079;52.704;13.814;2022-09-09T16:08:51;4.47;;;0.90;;
49241;SDS011;35079;52.704;13.814;2022-09-09T16:11:22;3.20;;;1.10;;
49241;SDS011;35079;52.704;13.814;2022-09-09T16:13:55;3.97;;;0.82;;
49241;SDS011;35079;52.704;13.814;2022-09-09T16:16:22;1.52;;;0.80;;
49241;SDS011;35079;52.704;13.814;2022-09-09T16:18:51;3.85;;;0.90;;
49241;SDS011;35079;52.704;13.814;2022-09-09T16:21:19;3.47;;;0.88;;
49241;SDS011;35079;52.704;13.814;2022-09-09T16:23:46;2.78;;;0.82;;
49241;SDS011;35079;52.704;13.814;2022-09-09T16:26:14;2.33;;;0.90;;
49241;SDS011;35079;52.704;13.814;2022-09-09T16:28:40;1.13;;;0.60;;
49241;SDS011;35079;52.704;13.814;2022-09-09T16:31:17;3.35;;;0.80;;
49241;SDS011;35079;52.704;13.814;2022-09-09T16:33:44;3.97;;;0.85;;
49241;SDS011;35079;52.704;13.814;2022-09-09T16:36:11;4.35;;;0.73;;
49241;SDS011;35079;52.704;13.814;2022-09-09T16:38:39;2.25;;;0.63;;
49241;SDS011;35079;52.704;13.814;2022-09-09T16:41:05;2.90;;;0.85;;
49241;SDS011;35079;52.704;13.814;2022-09-09T16:43:35;3.13;;;0.85;;
49241;SDS011;35079;52.704;13.814;2022-09-09T16:46:02;2.28;;;0.80;;
49241;SDS011;35079;52.704;13.814;2022-09-09T16:48:34;1.23;;;0.77;;
49241;SDS011;35079;52.704;13.814;2022-09-09T16:51:01;2.65;;;0.82;;
49241;SDS011;35079;52.704;13.814;2022-09-09T16:53:30;1.23;;;0.90;;
49241;SDS011;35079;52.704;13.814;2022-09-09T16:55:56;1.92;;;0.85;;
49241;SDS011;35079;52.704;13.814;2022-09-09T16:58:22;1.23;;;0.65;;
49241;SDS011;35079;52.704;13.814;2022-09-09T17:00:47;1.25;;;0.82;;
49241;SDS011;35079;52.704;13.814;2022-09-09T17:03:13;3.03;;;1.20;;
49241;SDS011;35079;52.704;13.814;2022-09-09T17:05:40;3.13;;;1.00;;
49241;SDS011;35079;52.704;13.814;2022-09-09T17:08:07;5.10;;;0.95;;
49241;SDS011;35079;52.704;13.814;2022-09-09T17:10:34;1.67;;;0.68;;
49241;SDS011;35079;52.704;13.814;2022-09-09T17:13:04;3.67;;;1.00;;
49241;SDS011;35079;52.704;13.814;2022-09-09T17:15:30;1.30;;;0.80;;
49241;SDS011;35079;52.704;13.814;2022-09-09T17:17:56;3.05;;;1.10;;
49241;SDS011;35079;52.704;13.814;2022-09-09T17:20:21;1.27;;;0.85;;